sensor_id;sensor_type;location;lat;lon;timestamp;pressure;altitude;pressure_sealevel;temperature
76541;BMP280;65385;55.772;37.658;2023-04-01T00:00:09;98318.94;;;1.83
76541;BMP280;65385;55.772;37.658;2023-04-01T00:01:13;98312.25;;;1.82
76541;BMP280;65385;55.772;37.658;2023-04-01T00:02:14;98322.31;;;1.84
76541;BMP280;65385;55.772;37.658;2023-04-01T00:03:15;98323.09;;;1.84
76541;BMP280;65385;55.772;37.658;2023-04-01T00:04:16;98319.50;;;1.85
76541;BMP280;65385;55.772;37.658;2023-04-01T00:05:17;98318.72;;;1.85
76541;BMP280;65385;55.772;37.658;2023-04-01T00:06:18;98317.94;;;1.84
76541;BMP280;65385;55.772;37.658;2023-04-01T00:07:19;98316.69;;;1.87
76541;BMP280;65385;55.772;37.658;2023-04-01T00:08:20;98320.81;;;1.88
76541;BMP280;65385;55.772;37.658;2023-04-01T00:09:20;98321.03;;;1.86
76541;BMP280;65385;55.772;37.658;2023-04-01T00:10:21;98321.03;;;1.86
76541;BMP280;65385;55.772;37.658;2023-04-01T00:11:22;98322.63;;;1.87
76541;BMP280;65385;55.772;37.658;2023-04-01T00:12:23;98323.41;;;1.88
76541;BMP280;65385;55.772;37.658;2023-04-01T00:13:25;98322.63;;;1.87
76541;BMP280;65385;55.772;37.658;2023-04-01T00:14:26;98326.75;;;1.88
76541;BMP280;65385;55.772;37.658;2023-04-01T00:15:27;98324.19;;;1.88
76541;BMP280;65385;55.772;37.658;2023-04-01T00:16:27;98320.03;;;1.87
76541;BMP280;65385;55.772;37.658;2023-04-01T00:17:28;98315.66;;;1.88
76541;BMP280;65385;55.772;37.658;2023-04-01T00:18:29;98322.63;;;1.87
76541;BMP280;65385;55.772;37.658;2023-04-01T00:19:30;98315.91;;;1.86
76541;BMP280;65385;55.772;37.658;2023-04-01T00:20:33;98314.34;;;1.85
76541;BMP280;65385;55.772;37.658;2023-04-01T00:21:33;98320.28;;;1.86
76541;BMP280;65385;55.772;37.658;2023-04-01T00:22:34;98317.94;;;1.84
76541;BMP280;65385;55.772;37.658;2023-04-01T00:23:35;98320.53;;;1.84
76541;BMP280;65385;55.772;37.658;2023-04-01T00:24:36;98317.72;;;1.86
76541;BMP280;65385;55.772;37.658;2023-04-01T00:25:37;98313.56;;;1.85
76541;BMP280;65385;55.772;37.658;2023-04-01T00:26:37;98314.34;;;1.85
76541;BMP280;65385;55.772;37.658;2023-04-01T00:27:38;98315.91;;;1.86
76541;BMP280;65385;55.772;37.658;2023-04-01T00:28:39;98315.91;;;1.86
76541;BMP280;65385;55.772;37.658;2023-04-01T00:29:44;98313.31;;;1.86
76541;BMP280;65385;55.772;37.658;2023-04-01T00:30:45;98313.31;;;1.86
76541;BMP280;65385;55.772;37.658;2023-04-01T00:31:46;98304.84;;;1.86
76541;BMP280;65385;55.772;37.658;2023-04-01T00:32:51;98305.06;;;1.84
76541;BMP280;65385;55.772;37.658;2023-04-01T00:33:52;98303.28;;;1.85
76541;BMP280;65385;55.772;37.658;2023-04-01T00:34:52;98312.56;;;1.86
76541;BMP280;65385;55.772;37.658;2023-04-01T00:35:53;98310.00;;;1.86
76541;BMP280;65385;55.772;37.658;2023-04-01T00:36:54;98313.31;;;1.86
76541;BMP280;65385;55.772;37.658;2023-04-01T00:37:55;98309.19;;;1.85
76541;BMP280;65385;55.772;37.658;2023-04-01T00:38:57;98309.72;;;1.87
76541;BMP280;65385;55.772;37.658;2023-04-01T00:39:59;98309.72;;;1.87
76541;BMP280;65385;55.772;37.658;2023-04-01T00:40:59;98310.75;;;1.86
76541;BMP280;65385;55.772;37.658;2023-04-01T00:42:02;98308.72;;;1.88
76541;BMP280;65385;55.772;37.658;2023-04-01T00:43:08;98307.16;;;1.87
76541;BMP280;65385;55.772;37.658;2023-04-01T00:44:22;98306.16;;;1.88
76541;BMP280;65385;55.772;37.658;2023-04-01T00:45:33;98303.28;;;1.85
76541;BMP280;65385;55.772;37.658;2023-04-01T00:46:33;98306.06;;;1.83
76541;BMP280;65385;55.772;37.658;2023-04-01T00:47:35;98312.78;;;1.84
76541;BMP280;65385;55.772;37.658;2023-04-01T00:48:39;98311.22;;;1.83
76541;BMP280;65385;55.772;37.658;2023-04-01T00:49:44;98308.91;;;1.82
76541;BMP280;65385;55.772;37.658;2023-04-01T00:50:49;98308.13;;;1.81
76541;BMP280;65385;55.772;37.658;2023-04-01T00:51:54;98302.19;;;1.81
76541;BMP280;65385;55.772;37.658;2023-04-01T00:52:56;98302.97;;;1.81
76541;BMP280;65385;55.772;37.658;2023-04-01T00:53:58;98304.53;;;1.82
76541;BMP280;65385;55.772;37.658;2023-04-01T00:55:04;98296.81;;;1.82
76541;BMP280;65385;55.772;37.658;2023-04-01T00:56:11;98300.13;;;1.83
76541;BMP280;65385;55.772;37.658;2023-04-01T00:57:23;98297.31;;;1.84
76541;BMP280;65385;55.772;37.658;2023-04-01T00:58:28;98300.69;;;1.85
76541;BMP280;65385;55.772;37.658;2023-04-01T00:59:32;98304.84;;;1.86
76541;BMP280;65385;55.772;37.658;2023-04-01T01:00:35;98303.78;;;1.87
76541;BMP280;65385;55.772;37.658;2023-04-01T01:01:36;98300.44;;;1.86
76541;BMP280;65385;55.772;37.658;2023-04-01T01:02:38;98303.28;;;1.85
76541;BMP280;65385;55.772;37.658;2023-04-01T01:03:38;98303.56;;;1.88
76541;BMP280;65385;55.772;37.658;2023-04-01T01:04:39;98297.63;;;1.88
76541;BMP280;65385;55.772;37.658;2023-04-01T01:08:06;98298.41;;;1.88
76541;BMP280;65385;55.772;37.658;2023-04-01T01:09:37;98301.53;;;1.90
76541;BMP280;65385;55.772;37.658;2023-04-01T01:10:39;98304.34;;;1.89
76541;BMP280;65385;55.772;37.658;2023-04-01T01:11:50;98307.72;;;1.89
76541;BMP280;65385;55.772;37.658;2023-04-01T01:14:22;98310.59;;;1.93
76541;BMP280;65385;55.772;37.658;2023-04-01T01:15:32;98306.78;;;1.95
76541;BMP280;65385;55.772;37.658;2023-04-01T01:16:43;98306.56;;;1.97
76541;BMP280;65385;55.772;37.658;2023-04-01T01:17:59;98307.09;;;1.99
76541;BMP280;65385;55.772;37.658;2023-04-01T01:21:28;98309.22;;;2.02
76541;BMP280;65385;55.772;37.658;2023-04-01T01:22:47;98308.22;;;2.03
76541;BMP280;65385;55.772;37.658;2023-04-01T01:27:21;98308.22;;;2.03
76541;BMP280;65385;55.772;37.658;2023-04-01T01:31:34;98300.16;;;1.99
76541;BMP280;65385;55.772;37.658;2023-04-01T01:35:25;98309.00;;;2.04
76541;BMP280;65385;55.772;37.658;2023-04-01T01:36:30;98314.38;;;2.02
76541;BMP280;65385;55.772;37.658;2023-04-01T01:37:32;98300.63;;;1.96
76541;BMP280;65385;55.772;37.658;2023-04-01T01:38:34;98315.16;;;2.03
76541;BMP280;65385;55.772;37.658;2023-04-01T01:39:38;98308.22;;;2.03
76541;BMP280;65385;55.772;37.658;2023-04-01T01:40:44;98316.72;;;2.04
76541;BMP280;65385;55.772;37.658;2023-04-01T01:41:46;98310.00;;;2.03
76541;BMP280;65385;55.772;37.658;2023-04-01T01:42:53;98304.63;;;2.04
76541;BMP280;65385;55.772;37.658;2023-04-01T01:43:56;98297.66;;;2.05
76541;BMP280;65385;55.772;37.658;2023-04-01T01:44:59;98309.53;;;2.06
76541;BMP280;65385;55.772;37.658;2023-04-01T01:46:07;98310.09;;;2.08
76541;BMP280;65385;55.772;37.658;2023-04-01T01:47:09;98310.09;;;2.08
76541;BMP280;65385;55.772;37.658;2023-04-01T01:48:11;98310.63;;;2.10
76541;BMP280;65385;55.772;37.658;2023-04-01T01:49:12;98306.50;;;2.09
76541;BMP280;65385;55.772;37.658;2023-04-01T01:50:15;98307.06;;;2.11
76541;BMP280;65385;55.772;37.658;2023-04-01T01:51:18;98305.47;;;2.10
76541;BMP280;65385;55.772;37.658;2023-04-01T01:52:19;98307.06;;;2.11
76541;BMP280;65385;55.772;37.658;2023-04-01T01:53:20;98308.06;;;2.10
76541;BMP280;65385;55.772;37.658;2023-04-01T01:54:20;98313.78;;;2.12
76541;BMP280;65385;55.772;37.658;2023-04-01T01:55:27;98306.03;;;2.12
76541;BMP280;65385;55.772;37.658;2023-04-01T01:56:29;98315.31;;;2.13
76541;BMP280;65385;55.772;37.658;2023-04-01T01:57:33;98306.56;;;2.14
76541;BMP280;65385;55.772;37.658;2023-04-01T01:58:47;98304.22;;;2.12
76541;BMP280;65385;55.772;37.658;2023-04-01T01:59:55;98306.56;;;2.14
76541;BMP280;65385;55.772;37.658;2023-04-01T02:01:03;98307.56;;;2.13
76541;BMP280;65385;55.772;37.658;2023-04-01T02:02:06;98302.97;;;2.15
76541;BMP280;65385;55.772;37.658;2023-04-01T02:03:10;98308.91;;;2.15
76541;BMP280;65385;55.772;37.658;2023-04-01T02:04:13;98302.97;;;2.15
76541;BMP280;65385;55.772;37.658;2023-04-01T02:05:18;98308.69;;;2.17
76541;BMP280;65385;55.772;37.658;2023-04-01T02:06:22;98306.13;;;2.17
76541;BMP280;65385;55.772;37.658;2023-04-01T02:07:28;98313.63;;;2.18
76541;BMP280;65385;55.772;37.658;2023-04-01T02:08:35;98303.31;;;2.18
76541;BMP280;65385;55.772;37.658;2023-04-01T02:09:38;98305.09;;;2.18
76541;BMP280;65385;55.772;37.658;2023-04-01T02:10:41;98310.78;;;2.20
76541;BMP280;65385;55.772;37.658;2023-04-01T02:11:48;98313.91;;;2.22
76541;BMP280;65385;55.772;37.658;2023-04-01T02:12:51;98313.91;;;2.22
76541;BMP280;65385;55.772;37.658;2023-04-01T02:13:58;98313.91;;;2.22
76541;BMP280;65385;55.772;37.658;2023-04-01T02:15:10;98313.91;;;2.22
76541;BMP280;65385;55.772;37.658;2023-04-01T02:16:20;98315.72;;;2.21
76541;BMP280;65385;55.772;37.658;2023-04-01T02:17:25;98321.09;;;2.20
76541;BMP280;65385;55.772;37.658;2023-04-01T02:18:27;98319.06;;;2.22
76541;BMP280;65385;55.772;37.658;2023-04-01T02:19:34;98318.28;;;2.21
76541;BMP280;65385;55.772;37.658;2023-04-01T02:20:37;98321.88;;;2.20
76541;BMP280;65385;55.772;37.658;2023-04-01T02:21:40;98321.88;;;2.20
76541;BMP280;65385;55.772;37.658;2023-04-01T02:22:45;98317.50;;;2.21
76541;BMP280;65385;55.772;37.658;2023-04-01T02:23:48;98326.03;;;2.21
76541;BMP280;65385;55.772;37.658;2023-04-01T02:24:52;98325.03;;;2.22
76541;BMP280;65385;55.772;37.658;2023-04-01T02:25:54;98321.66;;;2.22
76541;BMP280;65385;55.772;37.658;2023-04-01T02:26:55;98323.00;;;2.24
76541;BMP280;65385;55.772;37.658;2023-04-01T02:27:57;98324.56;;;2.25
76541;BMP280;65385;55.772;37.658;2023-04-01T02:28:59;98327.16;;;2.25
76541;BMP280;65385;55.772;37.658;2023-04-01T02:30:00;98318.94;;;2.28
76541;BMP280;65385;55.772;37.658;2023-04-01T02:31:01;98321.72;;;2.27
76541;BMP280;65385;55.772;37.658;2023-04-01T02:32:04;98325.63;;;2.29
76541;BMP280;65385;55.772;37.658;2023-04-01T02:33:06;98324.59;;;2.30
76541;BMP280;65385;55.772;37.658;2023-04-01T02:34:06;98321.25;;;2.30
76541;BMP280;65385;55.772;37.658;2023-04-01T02:35:11;98319.72;;;2.29
76541;BMP280;65385;55.772;37.658;2023-04-01T02:36:14;98321.56;;;2.33
76541;BMP280;65385;55.772;37.658;2023-04-01T02:37:15;98324.38;;;2.32
76541;BMP280;65385;55.772;37.658;2023-04-01T02:38:16;98331.91;;;2.33
76541;BMP280;65385;55.772;37.658;2023-04-01T02:39:17;98328.53;;;2.33
76541;BMP280;65385;55.772;37.658;2023-04-01T02:40:18;98331.91;;;2.33
76541;BMP280;65385;55.772;37.658;2023-04-01T02:41:19;98336.78;;;2.35
76541;BMP280;65385;55.772;37.658;2023-04-01T02:42:21;98328.53;;;2.33
76541;BMP280;65385;55.772;37.658;2023-04-01T02:43:23;98331.63;;;2.35
76541;BMP280;65385;55.772;37.658;2023-04-01T02:44:23;98336.00;;;2.34
76541;BMP280;65385;55.772;37.658;2023-04-01T02:45:24;98337.56;;;2.35
76541;BMP280;65385;55.772;37.658;2023-04-01T02:46:25;98329.84;;;2.35
76541;BMP280;65385;55.772;37.658;2023-04-01T02:47:25;98337.56;;;2.35
76541;BMP280;65385;55.772;37.658;2023-04-01T02:48:26;98327.81;;;2.37
76541;BMP280;65385;55.772;37.658;2023-04-01T02:49:27;98333.75;;;2.38
76541;BMP280;65385;55.772;37.658;2023-04-01T02:50:27;98331.19;;;2.38
76541;BMP280;65385;55.772;37.658;2023-04-01T02:51:28;98329.16;;;2.40
76541;BMP280;65385;55.772;37.658;2023-04-01T02:52:29;98327.38;;;2.40
76541;BMP280;65385;55.772;37.658;2023-04-01T02:53:31;98331.97;;;2.38
76541;BMP280;65385;55.772;37.658;2023-04-01T02:54:31;98332.53;;;2.40
76541;BMP280;65385;55.772;37.658;2023-04-01T02:55:33;98329.16;;;2.40
76541;BMP280;65385;55.772;37.658;2023-04-01T02:56:33;98325.81;;;2.39
76541;BMP280;65385;55.772;37.658;2023-04-01T02:57:34;98322.44;;;2.39
76541;BMP280;65385;55.772;37.658;2023-04-01T02:58:35;98330.16;;;2.39
76541;BMP280;65385;55.772;37.658;2023-04-01T02:59:36;98334.53;;;2.38
76541;BMP280;65385;55.772;37.658;2023-04-01T03:00:36;98328.59;;;2.38
76541;BMP280;65385;55.772;37.658;2023-04-01T03:01:37;98328.59;;;2.38
76541;BMP280;65385;55.772;37.658;2023-04-01T03:02:38;98320.31;;;2.36
76541;BMP280;65385;55.772;37.658;2023-04-01T03:03:39;98323.44;;;2.38
76541;BMP280;65385;55.772;37.658;2023-04-01T03:04:40;98321.88;;;2.37
76541;BMP280;65385;55.772;37.658;2023-04-01T03:05:40;98324.47;;;2.37
76541;BMP280;65385;55.772;37.658;2023-04-01T03:06:41;98326.25;;;2.36
76541;BMP280;65385;55.772;37.658;2023-04-01T03:07:41;98326.25;;;2.36
76541;BMP280;65385;55.772;37.658;2023-04-01T03:08:43;98331.41;;;2.36
76541;BMP280;65385;55.772;37.658;2023-04-01T03:09:44;98330.63;;;2.36
76541;BMP280;65385;55.772;37.658;2023-04-01T03:10:44;98329.53;;;2.32
76541;BMP280;65385;55.772;37.658;2023-04-01T03:11:45;98326.41;;;2.30
76541;BMP280;65385;55.772;37.658;2023-04-01T03:12:45;98332.34;;;2.30
76541;BMP280;65385;55.772;37.658;2023-04-01T03:13:46;98332.84;;;2.27
76541;BMP280;65385;55.772;37.658;2023-04-01T03:14:47;98333.09;;;2.26
76541;BMP280;65385;55.772;37.658;2023-04-01T03:15:48;98334.09;;;2.25
76541;BMP280;65385;55.772;37.658;2023-04-01T03:16:48;98335.09;;;2.24
76541;BMP280;65385;55.772;37.658;2023-04-01T03:17:49;98333.53;;;2.23
76541;BMP280;65385;55.772;37.658;2023-04-01T03:18:50;98337.69;;;2.24
76541;BMP280;65385;55.772;37.658;2023-04-01T03:19:53;98337.69;;;2.24
76541;BMP280;65385;55.772;37.658;2023-04-01T03:20:53;98340.25;;;2.24
76541;BMP280;65385;55.772;37.658;2023-04-01T03:21:54;98342.06;;;2.23
76541;BMP280;65385;55.772;37.658;2023-04-01T03:22:56;98345.41;;;2.24
76541;BMP280;65385;55.772;37.658;2023-04-01T03:23:56;98350.34;;;2.25
76541;BMP280;65385;55.772;37.658;2023-04-01T03:24:57;98343.63;;;2.24
76541;BMP280;65385;55.772;37.658;2023-04-01T03:25:58;98341.03;;;2.24
76541;BMP280;65385;55.772;37.658;2023-04-01T03:26:58;98337.69;;;2.24
76541;BMP280;65385;55.772;37.658;2023-04-01T03:27:59;98344.63;;;2.23
76541;BMP280;65385;55.772;37.658;2023-04-01T03:29:00;98348.78;;;2.24
76541;BMP280;65385;55.772;37.658;2023-04-01T03:30:03;98357.31;;;2.25
76541;BMP280;65385;55.772;37.658;2023-04-01T03:31:05;98345.41;;;2.24
76541;BMP280;65385;55.772;37.658;2023-04-01T03:32:13;98346.44;;;2.23
76541;BMP280;65385;55.772;37.658;2023-04-01T03:33:13;98353.16;;;2.24
76541;BMP280;65385;55.772;37.658;2023-04-01T03:34:14;98351.38;;;2.24
76541;BMP280;65385;55.772;37.658;2023-04-01T03:35:15;98350.00;;;2.22
76541;BMP280;65385;55.772;37.658;2023-04-01T03:36:17;98358.31;;;2.24
76541;BMP280;65385;55.772;37.658;2023-04-01T03:37:18;98355.72;;;2.24
76541;BMP280;65385;55.772;37.658;2023-04-01T03:38:18;98357.31;;;2.25
76541;BMP280;65385;55.772;37.658;2023-04-01T03:39:19;98358.09;;;2.25
76541;BMP280;65385;55.772;37.658;2023-04-01T03:40:20;98359.88;;;2.25
76541;BMP280;65385;55.772;37.658;2023-04-01T03:41:21;98361.44;;;2.26
76541;BMP280;65385;55.772;37.658;2023-04-01T03:42:22;98361.44;;;2.26
76541;BMP280;65385;55.772;37.658;2023-04-01T03:43:22;98356.28;;;2.26
76541;BMP280;65385;55.772;37.658;2023-04-01T03:44:23;98362.97;;;2.27
76541;BMP280;65385;55.772;37.658;2023-04-01T03:45:26;98360.66;;;2.25
76541;BMP280;65385;55.772;37.658;2023-04-01T03:46:27;98365.56;;;2.27
76541;BMP280;65385;55.772;37.658;2023-04-01T03:47:28;98362.22;;;2.26
76541;BMP280;65385;55.772;37.658;2023-04-01T03:48:28;98361.97;;;2.28
76541;BMP280;65385;55.772;37.658;2023-04-01T03:49:29;98360.41;;;2.27
76541;BMP280;65385;55.772;37.658;2023-04-01T03:50:30;98366.34;;;2.27
76541;BMP280;65385;55.772;37.658;2023-04-01T03:51:30;98373.59;;;2.30
76541;BMP280;65385;55.772;37.658;2023-04-01T03:52:31;98367.66;;;2.30
76541;BMP280;65385;55.772;37.658;2023-04-01T03:53:32;98369.22;;;2.31
76541;BMP280;65385;55.772;37.658;2023-04-01T03:54:35;98372.81;;;2.30
76541;BMP280;65385;55.772;37.658;2023-04-01T03:55:37;98377.53;;;2.33
76541;BMP280;65385;55.772;37.658;2023-04-01T03:56:38;98376.75;;;2.32
76541;BMP280;65385;55.772;37.658;2023-04-01T03:57:38;98376.50;;;2.34
76541;BMP280;65385;55.772;37.658;2023-04-01T03:58:49;98374.69;;;2.34
76541;BMP280;65385;55.772;37.658;2023-04-01T03:59:49;98383.47;;;2.33
76541;BMP280;65385;55.772;37.658;2023-04-01T04:00:50;98384.22;;;2.34
76541;BMP280;65385;55.772;37.658;2023-04-01T04:01:50;98381.91;;;2.32
76541;BMP280;65385;55.772;37.658;2023-04-01T04:02:51;98385.78;;;2.35
76541;BMP280;65385;55.772;37.658;2023-04-01T04:03:57;98381.13;;;2.32
76541;BMP280;65385;55.772;37.658;2023-04-01T04:04:58;98388.38;;;2.35
76541;BMP280;65385;55.772;37.658;2023-04-01T04:06:01;98393.53;;;2.35
76541;BMP280;65385;55.772;37.658;2023-04-01T04:07:02;98391.72;;;2.35
76541;BMP280;65385;55.772;37.658;2023-04-01T04:08:08;98396.09;;;2.35
76541;BMP280;65385;55.772;37.658;2023-04-01T04:09:08;98391.97;;;2.34
76541;BMP280;65385;55.772;37.658;2023-04-01T04:10:09;98391.97;;;2.34
76541;BMP280;65385;55.772;37.658;2023-04-01T04:11:10;98391.22;;;2.33
76541;BMP280;65385;55.772;37.658;2023-04-01T04:12:14;98390.41;;;2.33
76541;BMP280;65385;55.772;37.658;2023-04-01T04:13:15;98387.06;;;2.32
76541;BMP280;65385;55.772;37.658;2023-04-01T04:14:23;98388.53;;;2.28
76541;BMP280;65385;55.772;37.658;2023-04-01T04:15:24;98395.03;;;2.31
76541;BMP280;65385;55.772;37.658;2023-04-01T04:16:24;98393.78;;;2.33
76541;BMP280;65385;55.772;37.658;2023-04-01T04:17:33;98395.31;;;2.34
76541;BMP280;65385;55.772;37.658;2023-04-01T04:18:33;98390.66;;;2.31
76541;BMP280;65385;55.772;37.658;2023-04-01T04:19:34;98399.47;;;2.35
76541;BMP280;65385;55.772;37.658;2023-04-01T04:20:35;98397.69;;;2.36
76541;BMP280;65385;55.772;37.658;2023-04-01T04:21:36;98395.88;;;2.36
76541;BMP280;65385;55.772;37.658;2023-04-01T04:22:36;98396.09;;;2.35
76541;BMP280;65385;55.772;37.658;2023-04-01T04:23:39;98398.69;;;2.35
76541;BMP280;65385;55.772;37.658;2023-04-01T04:24:39;98396.66;;;2.37
76541;BMP280;65385;55.772;37.658;2023-04-01T04:25:57;98403.16;;;2.39
76541;BMP280;65385;55.772;37.658;2023-04-01T04:26:58;98398.16;;;2.33
76541;BMP280;65385;55.772;37.658;2023-04-01T04:27:59;98406.75;;;2.38
76541;BMP280;65385;55.772;37.658;2023-04-01T04:28:59;98400.81;;;2.38
76541;BMP280;65385;55.772;37.658;2023-04-01T04:30:00;98400.03;;;2.37
76541;BMP280;65385;55.772;37.658;2023-04-01T04:31:01;98399.25;;;2.37
76541;BMP280;65385;55.772;37.658;2023-04-01T04:32:01;98406.53;;;2.40
76541;BMP280;65385;55.772;37.658;2023-04-01T04:33:02;98394.66;;;2.39
76541;BMP280;65385;55.772;37.658;2023-04-01T04:34:03;98403.69;;;2.41
76541;BMP280;65385;55.772;37.658;2023-04-01T04:35:08;98401.13;;;2.41
76541;BMP280;65385;55.772;37.658;2023-04-01T04:36:09;98401.38;;;2.40
76541;BMP280;65385;55.772;37.658;2023-04-01T04:37:09;98406.06;;;2.43
76541;BMP280;65385;55.772;37.658;2023-04-01T04:38:11;98401.91;;;2.42
76541;BMP280;65385;55.772;37.658;2023-04-01T04:39:11;98403.69;;;2.41
76541;BMP280;65385;55.772;37.658;2023-04-01T04:40:14;98407.84;;;2.42
76541;BMP280;65385;55.772;37.658;2023-04-01T04:41:17;98408.84;;;2.41
76541;BMP280;65385;55.772;37.658;2023-04-01T04:42:21;98407.06;;;2.42
76541;BMP280;65385;55.772;37.658;2023-04-01T04:43:23;98412.78;;;2.44
76541;BMP280;65385;55.772;37.658;2023-04-01T04:44:24;98403.47;;;2.43
76541;BMP280;65385;55.772;37.658;2023-04-01T04:45:25;98411.75;;;2.45
76541;BMP280;65385;55.772;37.658;2023-04-01T04:46:29;98412.31;;;2.47
76541;BMP280;65385;55.772;37.658;2023-04-01T04:47:38;98416.47;;;2.48
76541;BMP280;65385;55.772;37.658;2023-04-01T04:48:38;98409.25;;;2.50
76541;BMP280;65385;55.772;37.658;2023-04-01T04:49:39;98410.59;;;2.53
76541;BMP280;65385;55.772;37.658;2023-04-01T04:50:43;98411.94;;;2.55
76541;BMP280;65385;55.772;37.658;2023-04-01T04:51:43;98412.47;;;2.57
76541;BMP280;65385;55.772;37.658;2023-04-01T04:52:44;98412.25;;;2.59
76541;BMP280;65385;55.772;37.658;2023-04-01T04:53:46;98412.25;;;2.59
76541;BMP280;65385;55.772;37.658;2023-04-01T04:54:46;98414.03;;;2.58
76541;BMP280;65385;55.772;37.658;2023-04-01T04:55:48;98423.41;;;2.64
76541;BMP280;65385;55.772;37.658;2023-04-01T04:57:21;98427.56;;;2.65
76541;BMP280;65385;55.772;37.658;2023-04-01T04:58:28;98429.13;;;2.66
76541;BMP280;65385;55.772;37.658;2023-04-01T04:59:29;98433.28;;;2.67
76541;BMP280;65385;55.772;37.658;2023-04-01T05:00:41;98431.47;;;2.68
76541;BMP280;65385;55.772;37.658;2023-04-01T05:01:45;98433.81;;;2.69
76541;BMP280;65385;55.772;37.658;2023-04-01T05:02:46;98426.31;;;2.68
76541;BMP280;65385;55.772;37.658;2023-04-01T05:03:46;98437.41;;;2.68
76541;BMP280;65385;55.772;37.658;2023-04-01T05:04:47;98434.34;;;2.71
76541;BMP280;65385;55.772;37.658;2023-04-01T05:05:50;98435.94;;;2.72
76541;BMP280;65385;55.772;37.658;2023-04-01T05:06:51;98440.84;;;2.74
76541;BMP280;65385;55.772;37.658;2023-04-01T05:07:52;98433.91;;;2.74
76541;BMP280;65385;55.772;37.658;2023-04-01T05:08:53;98441.66;;;2.74
76541;BMP280;65385;55.772;37.658;2023-04-01T05:09:54;98443.22;;;2.75
76541;BMP280;65385;55.772;37.658;2023-04-01T05:10:55;98448.94;;;2.77
76541;BMP280;65385;55.772;37.658;2023-04-01T05:11:55;98440.16;;;2.78
76541;BMP280;65385;55.772;37.658;2023-04-01T05:12:58;98444.31;;;2.79
76541;BMP280;65385;55.772;37.658;2023-04-01T05:13:59;98444.84;;;2.81
76541;BMP280;65385;55.772;37.658;2023-04-01T05:15:00;98442.06;;;2.83
76541;BMP280;65385;55.772;37.658;2023-04-01T05:16:01;98444.41;;;2.85
76541;BMP280;65385;55.772;37.658;2023-04-01T05:17:01;98443.91;;;2.88
76541;BMP280;65385;55.772;37.658;2023-04-01T05:18:02;98442.13;;;2.88
76541;BMP280;65385;55.772;37.658;2023-04-01T05:19:03;98435.72;;;2.91
76541;BMP280;65385;55.772;37.658;2023-04-01T05:20:04;98444.78;;;2.93
76541;BMP280;65385;55.772;37.658;2023-04-01T05:21:07;98440.69;;;2.97
76541;BMP280;65385;55.772;37.658;2023-04-01T05:22:08;98440.22;;;3.00
76541;BMP280;65385;55.772;37.658;2023-04-01T05:23:09;98447.28;;;3.05
76541;BMP280;65385;55.772;37.658;2023-04-01T05:24:10;98437.47;;;3.07
76541;BMP280;65385;55.772;37.658;2023-04-01T05:25:12;98441.94;;;3.11
76541;BMP280;65385;55.772;37.658;2023-04-01T05:26:14;98439.13;;;3.13
76541;BMP280;65385;55.772;37.658;2023-04-01T05:27:15;98446.38;;;3.16
76541;BMP280;65385;55.772;37.658;2023-04-01T05:28:17;98438.19;;;3.19
76541;BMP280;65385;55.772;37.658;2023-04-01T05:29:19;98446.97;;;3.23
76541;BMP280;65385;55.772;37.658;2023-04-01T05:30:24;98443.94;;;3.26
76541;BMP280;65385;55.772;37.658;2023-04-01T05:31:33;98442.44;;;3.30
76541;BMP280;65385;55.772;37.658;2023-04-01T05:32:34;98443.78;;;3.33
76541;BMP280;65385;55.772;37.658;2023-04-01T05:33:35;98441.75;;;3.35
76541;BMP280;65385;55.772;37.658;2023-04-01T05:34:36;98442.28;;;3.37
76541;BMP280;65385;55.772;37.658;2023-04-01T05:35:37;98440.00;;;3.40
76541;BMP280;65385;55.772;37.658;2023-04-01T05:36:38;98436.41;;;3.41
76541;BMP280;65385;55.772;37.658;2023-04-01T05:37:39;98439.00;;;3.41
76541;BMP280;65385;55.772;37.658;2023-04-01T05:38:40;98448.38;;;3.47
76541;BMP280;65385;55.772;37.658;2023-04-01T05:39:44;98437.00;;;3.48
76541;BMP280;65385;55.772;37.658;2023-04-01T05:40:45;98446.06;;;3.51
76541;BMP280;65385;55.772;37.658;2023-04-01T05:41:46;98445.81;;;3.52
76541;BMP280;65385;55.772;37.658;2023-04-01T05:42:46;98449.50;;;3.56
76541;BMP280;65385;55.772;37.658;2023-04-01T05:43:48;98441.03;;;3.61
76541;BMP280;65385;55.772;37.658;2023-04-01T05:45:17;98452.16;;;3.61
76541;BMP280;65385;55.772;37.658;2023-04-01T05:46:36;98446.97;;;3.61
76541;BMP280;65385;55.772;37.658;2023-04-01T05:47:59;98452.69;;;3.63
76541;BMP280;65385;55.772;37.658;2023-04-01T05:48:59;98447.03;;;3.67
76541;BMP280;65385;55.772;37.658;2023-04-01T05:50:01;98448.63;;;3.68
76541;BMP280;65385;55.772;37.658;2023-04-01T05:51:03;98457.47;;;3.72
76541;BMP280;65385;55.772;37.658;2023-04-01T05:52:04;98450.19;;;3.74
76541;BMP280;65385;55.772;37.658;2023-04-01T05:53:07;98454.59;;;3.73
76541;BMP280;65385;55.772;37.658;2023-04-01T05:54:08;98453.56;;;3.74
76541;BMP280;65385;55.772;37.658;2023-04-01T05:55:10;98453.34;;;3.76
76541;BMP280;65385;55.772;37.658;2023-04-01T05:56:11;98453.91;;;3.78
76541;BMP280;65385;55.772;37.658;2023-04-01T05:57:18;98459.59;;;3.80
76541;BMP280;65385;55.772;37.658;2023-04-01T05:58:19;98459.13;;;3.83
76541;BMP280;65385;55.772;37.658;2023-04-01T05:59:21;98458.09;;;3.84
76541;BMP280;65385;55.772;37.658;2023-04-01T06:00:22;98464.59;;;3.86
76541;BMP280;65385;55.772;37.658;2023-04-01T06:01:22;98452.19;;;3.88
76541;BMP280;65385;55.772;37.658;2023-04-01T06:02:23;98460.28;;;3.92
76541;BMP280;65385;55.772;37.658;2023-04-01T06:03:24;98467.72;;;3.88
76541;BMP280;65385;55.772;37.658;2023-04-01T06:04:25;98461.75;;;3.88
76541;BMP280;65385;55.772;37.658;2023-04-01T06:05:30;98465.91;;;3.89
76541;BMP280;65385;55.772;37.658;2023-04-01T06:06:31;98463.09;;;3.90
76541;BMP280;65385;55.772;37.658;2023-04-01T06:07:39;98470.63;;;3.92
76541;BMP280;65385;55.772;37.658;2023-04-01T06:08:40;98476.34;;;3.94
76541;BMP280;65385;55.772;37.658;2023-04-01T06:09:42;98470.63;;;3.97
76541;BMP280;65385;55.772;37.658;2023-04-01T06:32:26;98474.16;;;4.39
76541;BMP280;65385;55.772;37.658;2023-04-01T06:35:00;98472.94;;;4.47
76541;BMP280;65385;55.772;37.658;2023-04-01T06:36:15;98479.22;;;4.56
76541;BMP280;65385;55.772;37.658;2023-04-01T06:37:23;98477.97;;;4.59
76541;BMP280;65385;55.772;37.658;2023-04-01T06:41:24;98487.22;;;4.81
76541;BMP280;65385;55.772;37.658;2023-04-01T06:42:37;98485.47;;;4.87
76541;BMP280;65385;55.772;37.658;2023-04-01T06:45:40;98485.31;;;5.04